Osg Vision — WDF2493 — position and weather

sailwx.info

Track history (hours):
 
Tides and Currents Weather Stations Pressure Air Temp Water Temp Dewpoint Dewpoint Depression Visibility Wind Speed Wind Dir Waves Ship Positions

Osg Vision

Owner: OSG Ship Management Inc., Tampa, FL. More information available from US FCC via Universal Licensing System and Coast Guard Vessel Documentation Center.

Last reported at 2018-Feb-23 02:58 UTC. Time now 2018-Feb-23 03:13 UTC.
Position N 39°01' W 075°14'.

Length 213 m; draft 7.9 m.

Type: Tanker. MMSI: 369235000.

Date/timePositionNaut miles runAvg speedWind from/ knotsBaromVisibWave heightAir tempDewpointWater temp
2018-Feb-23 02:58N 39°01' W 075°14'0 0.1
2018-Feb-23 02:28N 39°01' W 075°14'0 0.0
2018-Feb-23 01:58N 39°01' W 075°14'0 0.0
2018-Feb-23 01:28N 39°01' W 075°14'0 0.1
2018-Feb-23 00:58N 39°01' W 075°14'0 0.0
2018-Feb-23 00:28N 39°01' W 075°14'0 0.2
2018-Feb-22 23:58N 39°01' W 075°14'0 0.0
2018-Feb-22 23:28N 39°01' W 075°14'0 0.0
2018-Feb-22 22:58N 39°01' W 075°14'0 0.0
2018-Feb-22 22:22N 39°01' W 075°14'0 0.1
2018-Feb-22 21:58N 39°01' W 075°14'0 0.1
2018-Feb-22 21:28N 39°01' W 075°14'0 0.1
2018-Feb-22 20:55N 39°01' W 075°14'0 0.1
2018-Feb-22 20:28N 39°01' W 075°14'0 0.0
2018-Feb-22 19:58N 39°01' W 075°14'0 0.1
2018-Feb-22 19:28N 39°01' W 075°14'0 0.0
2018-Feb-22 18:55N 39°01' W 075°14'0 0.2
2018-Feb-22 18:28N 39°01' W 075°14'1 2.4
2018-Feb-22 18:00N 38°60' W 075°14'610.7
2018-Feb-22 17:29N 38°55' W 075°09'2 2.9
2018-Feb-22 16:53N 38°55' W 075°07'2 5.6
2018-Feb-22 16:30N 38°57' W 075°07'4 8.4
2018-Feb-22 16:00N 39°01' W 075°09'4 8.8
2018-Feb-22 15:30N 39°05' W 075°11'5 9.3
2018-Feb-22 15:00N 39°09' W 075°15'510.2
2018-Feb-22 14:30N 39°13' W 075°18'611.6
2018-Feb-22 14:00N 39°18' W 075°23'612.7
2018-Feb-22 13:30N 39°23' W 075°28'612.6
2018-Feb-22 13:00N 39°27' W 075°34'612.0
2018-Feb-22 12:30N 39°33' W 075°33'3 5.5
2018-Feb-22 12:00N 39°35' W 075°35'0 0.0
2018-Feb-22 11:30N 39°35' W 075°35'0 0.0
2018-Feb-22 10:58N 39°35' W 075°35'0 0.0
2018-Feb-22 10:28N 39°35' W 075°35'0 0.0
2018-Feb-22 09:58N 39°35' W 075°35'0 0.0
2018-Feb-22 09:28N 39°35' W 075°35'0 0.0
2018-Feb-22 08:58N 39°35' W 075°35'0 0.0
2018-Feb-22 08:28N 39°35' W 075°35'0 0.0
2018-Feb-22 07:58N 39°35' W 075°35'0 0.0
2018-Feb-22 07:28N 39°35' W 075°35'0 0.0
2018-Feb-22 06:58N 39°35' W 075°35'0 0.0
2018-Feb-22 06:28N 39°35' W 075°35'0 0.0
2018-Feb-22 05:58N 39°35' W 075°35'0 0.0
2018-Feb-22 05:28N 39°35' W 075°35'0 0.0
2018-Feb-22 04:58N 39°35' W 075°35'0 0.0
2018-Feb-22 04:28N 39°35' W 075°35'0 0.0
2018-Feb-22 03:58N 39°35' W 075°35'0 0.0
2018-Feb-22 03:28N 39°35' W 075°35'0 0.0
2018-Feb-22 02:58N 39°35' W 075°35'0 0.0
2018-Feb-22 02:28N 39°35' W 075°35'0 0.0
2018-Feb-22 01:55N 39°35' W 075°35'0 0.0
2018-Feb-22 01:28N 39°35' W 075°35'0 0.0
2018-Feb-22 00:58N 39°35' W 075°35'0 0.0
2018-Feb-22 00:28N 39°35' W 075°35'0 0.0
2018-Feb-21 23:55N 39°35' W 075°35'0 0.0
2018-Feb-21 23:28N 39°35' W 075°35'0 0.0
2018-Feb-21 22:58N 39°35' W 075°35'0 0.0
2018-Feb-21 22:28N 39°35' W 075°35'0 0.0
2018-Feb-21 22:00N 39°35' W 075°35'1 2.1
2018-Feb-21 21:30N 39°34' W 075°34'3 6.9
2018-Feb-21 21:00N 39°31' W 075°33'5 9.5
2018-Feb-21 20:30N 39°26' W 075°32'510.5
2018-Feb-21 20:00N 39°22' W 075°28'510.6
2018-Feb-21 19:30N 39°19' W 075°23'610.9
2018-Feb-21 18:59N 39°14' W 075°19'510.7
2018-Feb-21 18:30N 39°10' W 075°15'510.7
2018-Feb-21 18:00N 39°05' W 075°11'510.2
2018-Feb-21 17:31N 39°01' W 075°09'510.2
2018-Feb-21 17:00N 38°56' W 075°06'2 0.7
2018-Feb-21 14:38N 38°55' W 075°08'0 0.0
2018-Feb-21 14:29N 38°55' W 075°08'0 0.1
2018-Feb-21 13:11N 38°55' W 075°08'0 0.3
2018-Feb-21 12:53N 38°55' W 075°08'0 0.1
2018-Feb-21 12:29N 38°55' W 075°08'0 0.0
2018-Feb-21 11:59N 38°55' W 075°08'0 0.0
2018-Feb-21 11:29N 38°55' W 075°08'0 0.0
2018-Feb-21 10:53N 38°55' W 075°08'0 1.1
2018-Feb-21 10:29N 38°54' W 075°08'5 9.9
2018-Feb-21 09:57N 38°59' W 075°12'1 0.1
2018-Feb-21 01:57N 38°59' W 075°13'0 0.1
2018-Feb-21 01:30N 38°59' W 075°13'3 5.4
2018-Feb-21 00:55N 38°57' W 075°10'4 7.4
2018-Feb-21 00:26N 38°56' W 075°06'510.5
2018-Feb-21 00:01N 38°60' W 075°08'611.4
2018-Feb-20 23:30N 39°05' W 075°11'612.3
2018-Feb-20 23:00N 39°10' W 075°16'612.7
2018-Feb-20 22:31N 39°16' W 075°20'612.8
2018-Feb-20 22:00N 39°20' W 075°26'612.1
2018-Feb-20 21:30N 39°25' W 075°31'510.6
2018-Feb-20 21:00N 39°30' W 075°34'510.1
2018-Feb-20 20:30N 39°35' W 075°33'4 8.6
2018-Feb-20 20:01N 39°39' W 075°33'4 8.9
2018-Feb-20 19:30N 39°43' W 075°30'4 8.7
2018-Feb-20 19:01N 39°47' W 075°28'4 8.4
2018-Feb-20 18:31N 39°49' W 075°23'4 7.6
2018-Feb-20 18:00N 39°51' W 075°19'4 8.8
2018-Feb-20 17:31N 39°52' W 075°13'0 0.8
2018-Feb-20 17:00N 39°52' W 075°13'0 0.0
2018-Feb-20 16:28N 39°52' W 075°13'0 0.0
2018-Feb-20 15:58N 39°52' W 075°13'0 0.0
2018-Feb-20 15:28N 39°52' W 075°13'0 0.0
2018-Feb-20 14:58N 39°52' W 075°13'0 0.0
2018-Feb-20 14:28N 39°52' W 075°13'0 0.0
2018-Feb-20 13:58N 39°52' W 075°13'0 0.0
2018-Feb-20 13:28N 39°52' W 075°13'0 0.0
2018-Feb-20 12:58N 39°52' W 075°13'0 0.0
2018-Feb-20 12:28N 39°52' W 075°13'0 0.0
2018-Feb-20 11:58N 39°52' W 075°13'0 0.0
2018-Feb-20 11:28N 39°52' W 075°13'0 0.0
2018-Feb-20 10:58N 39°52' W 075°13'0 0.0
2018-Feb-20 10:28N 39°52' W 075°13'0 0.0
2018-Feb-20 09:58N 39°52' W 075°13'0 0.0
2018-Feb-20 09:28N 39°52' W 075°13'0 0.0
2018-Feb-20 08:58N 39°52' W 075°13'0 0.0
2018-Feb-20 08:28N 39°52' W 075°13'0 0.0
2018-Feb-20 07:58N 39°52' W 075°13'0 0.0
2018-Feb-20 07:28N 39°52' W 075°13'0 0.0
2018-Feb-20 06:58N 39°52' W 075°13'0 0.0
2018-Feb-20 06:28N 39°52' W 075°13'0 0.0
2018-Feb-20 05:58N 39°52' W 075°13'0 0.0
2018-Feb-20 05:28N 39°52' W 075°13'0 0.0
2018-Feb-20 04:58N 39°52' W 075°13'0 0.0
2018-Feb-20 04:28N 39°52' W 075°13'0 0.0
2018-Feb-20 03:58N 39°52' W 075°13'0 0.0
2018-Feb-20 03:28N 39°52' W 075°13'0 0.0
2018-Feb-20 02:58N 39°52' W 075°13'0 0.0
2018-Feb-20 02:28N 39°52' W 075°13'0 0.0
2018-Feb-20 01:58N 39°52' W 075°13'0 0.2
2018-Feb-20 01:28N 39°52' W 075°13'0 0.1
2018-Feb-20 00:58N 39°52' W 075°13'0 0.0
2018-Feb-20 00:28N 39°52' W 075°13'0 0.0
2018-Feb-19 23:58N 39°52' W 075°13'0 0.0
2018-Feb-19 23:28N 39°52' W 075°13'0 0.0
2018-Feb-19 22:58N 39°52' W 075°13'0 0.0
2018-Feb-19 22:28N 39°52' W 075°13'0 0.0
2018-Feb-19 21:58N 39°52' W 075°13'0 0.0
2018-Feb-19 21:25N 39°52' W 075°13'0 0.0
2018-Feb-19 20:58N 39°52' W 075°13'0 0.0
2018-Feb-19 20:28N 39°52' W 075°13'0 0.0
2018-Feb-19 19:58N 39°52' W 075°13'0 0.0
2018-Feb-19 19:28N 39°52' W 075°13'0 0.0
2018-Feb-19 18:58N 39°52' W 075°13'0 0.0
2018-Feb-19 18:28N 39°52' W 075°13'0 0.0
2018-Feb-19 17:58N 39°52' W 075°13'0 0.0
2018-Feb-19 17:28N 39°52' W 075°13'0 0.0
2018-Feb-19 16:58N 39°52' W 075°13'0 0.0
2018-Feb-19 16:28N 39°52' W 075°13'0 0.0
2018-Feb-19 15:58N 39°52' W 075°13'0 0.0
2018-Feb-19 15:28N 39°52' W 075°13'0 0.0
2018-Feb-19 14:58N 39°52' W 075°13'0 0.0
2018-Feb-19 14:28N 39°52' W 075°13'0 0.0
2018-Feb-19 13:58N 39°52' W 075°13'0 0.0
2018-Feb-19 13:28N 39°52' W 075°13'0 0.0
2018-Feb-19 12:58N 39°52' W 075°13'0 0.0
2018-Feb-19 12:28N 39°52' W 075°13'0 0.0
2018-Feb-19 11:58N 39°52' W 075°13'0 0.0
2018-Feb-19 11:28N 39°52' W 075°13'0 0.0
2018-Feb-19 10:58N 39°52' W 075°13'0 0.0
2018-Feb-19 10:28N 39°52' W 075°13'0 0.0
2018-Feb-19 09:58N 39°52' W 075°13'0 0.0
2018-Feb-19 09:28N 39°52' W 075°13'0 0.0
2018-Feb-19 08:58N 39°52' W 075°13'0 0.0
2018-Feb-19 08:25N 39°52' W 075°13'0 0.0
2018-Feb-19 07:58N 39°52' W 075°13'0 0.0
2018-Feb-19 07:28N 39°52' W 075°13'0 0.0
2018-Feb-19 06:58N 39°52' W 075°13'0 0.0
2018-Feb-19 06:28N 39°52' W 075°13'0 0.0
2018-Feb-19 05:58N 39°52' W 075°13'0 0.0
2018-Feb-19 05:28N 39°52' W 075°13'0 0.0
2018-Feb-19 04:58N 39°52' W 075°13'0 0.0
2018-Feb-19 04:28N 39°52' W 075°13'0 0.0
2018-Feb-19 03:58N 39°52' W 075°13'0 0.0
2018-Feb-19 03:28N 39°52' W 075°13'0 0.0
2018-Feb-19 02:58N 39°52' W 075°13'0 0.0
2018-Feb-19 02:28N 39°52' W 075°13'0 0.0
2018-Feb-19 01:55N 39°52' W 075°13'0 0.0
2018-Feb-19 01:28N 39°52' W 075°13'0 0.0
2018-Feb-19 00:58N 39°52' W 075°13'0 0.0
2018-Feb-19 00:28N 39°52' W 075°13'0 0.0
2018-Feb-18 23:58N 39°52' W 075°13'0 0.0
2018-Feb-18 23:28N 39°52' W 075°13'0 0.0
2018-Feb-18 22:58N 39°52' W 075°13'0 0.0
2018-Feb-18 22:28N 39°52' W 075°13'0 0.0
2018-Feb-18 21:58N 39°52' W 075°13'0 0.0
2018-Feb-18 21:25N 39°52' W 075°13'0 0.0
2018-Feb-18 20:58N 39°52' W 075°13'0 0.0
2018-Feb-18 20:28N 39°52' W 075°13'0 0.0
2018-Feb-18 20:00N 39°52' W 075°13'0 0.6
2018-Feb-18 19:30N 39°52' W 075°13'3 5.7
2018-Feb-18 19:00N 39°51' W 075°17'510.2
2018-Feb-18 18:30N 39°49' W 075°23'510.1
2018-Feb-18 18:00N 39°46' W 075°28'611.8
2018-Feb-18 17:30N 39°41' W 075°31'510.6
2018-Feb-18 17:00N 39°36' W 075°34'510.2
2018-Feb-18 16:30N 39°31' W 075°33'510.8
2018-Feb-18 16:00N 39°26' W 075°32'611.9
2018-Feb-18 15:30N 39°21' W 075°26'611.8
2018-Feb-18 15:00N 39°17' W 075°21'611.5
2018-Feb-18 14:30N 39°12' W 075°17'611.5
2018-Feb-18 14:01N 39°07' W 075°13'611.3
2018-Feb-18 13:30N 39°02' W 075°10'611.5
2018-Feb-18 13:00N 38°57' W 075°07'3 6.2
2018-Feb-18 12:30N 38°54' W 075°08'1 1.5
2018-Feb-18 11:58N 38°54' W 075°07'1 1.5
2018-Feb-18 11:30N 38°55' W 075°08'0 0.2
2018-Feb-18 10:59N 38°55' W 075°08'0 0.0
2018-Feb-18 10:29N 38°55' W 075°08'0 0.0
2018-Feb-18 09:35N 38°55' W 075°08'0 0.0
2018-Feb-18 09:26N 38°55' W 075°08'0 0.0
2018-Feb-18 08:47N 38°55' W 075°08'0 0.0
2018-Feb-18 08:23N 38°55' W 075°08'0 0.0
2018-Feb-18 07:59N 38°55' W 075°08'0 0.0
2018-Feb-18 07:26N 38°55' W 075°08'0 0.0
2018-Feb-18 06:56N 38°55' W 075°08'0 0.0
2018-Feb-18 06:23N 38°55' W 075°08'0 0.1
2018-Feb-18 05:56N 38°55' W 075°08'0 0.1
2018-Feb-18 05:29N 38°55' W 075°08'0 0.1
2018-Feb-18 03:35N 38°55' W 075°08'0 0.1
2018-Feb-18 03:29N 38°55' W 075°08'0 0.1
2018-Feb-17 22:53N 38°55' W 075°08'0 0.2
2018-Feb-17 22:14N 38°55' W 075°08'3 4.7
2018-Feb-17 21:32N 38°57' W 075°11'0 3.8
2018-Feb-17 21:30N 38°57' W 075°11'0 0.4
2018-Feb-17 20:59N 38°57' W 075°11'0 0.1
2018-Feb-17 14:45N 38°57' W 075°11'0 0.2
2018-Feb-17 14:29N 38°57' W 075°11'0 0.6
2018-Feb-17 13:43N 38°57' W 075°11'1 3.2
2018-Feb-17 13:27N 38°58' W 075°12'4 0.2
2018-Feb-16 18:52N 38°56' W 075°08'0 0.0
2018-Feb-16 18:28N 38°56' W 075°08'0 0.0
2018-Feb-16 17:58N 38°56' W 075°08'0 0.1
2018-Feb-16 17:25N 38°56' W 075°08'0 0.0
2018-Feb-16 16:49N 38°56' W 075°08'0 0.1
2018-Feb-16 16:10N 38°56' W 075°08'0 0.1
2018-Feb-16 15:40N 38°56' W 075°08'0 0.1
2018-Feb-16 14:40N 38°56' W 075°08'0 0.1
2018-Feb-16 14:19N 38°56' W 075°08'0 0.1
2018-Feb-16 13:58N 38°56' W 075°08'0 0.1
2018-Feb-16 13:25N 38°56' W 075°08'0 0.0
2018-Feb-16 12:58N 38°56' W 075°08'0 0.0
2018-Feb-16 12:28N 38°56' W 075°08'0 0.0
2018-Feb-16 11:58N 38°56' W 075°08'0 0.1
2018-Feb-16 11:28N 38°56' W 075°08'0 0.0
2018-Feb-16 10:58N 38°56' W 075°08'0 0.0
2018-Feb-16 10:28N 38°56' W 075°08'0 0.1
2018-Feb-16 09:25N 38°56' W 075°08'0 0.1
2018-Feb-16 08:04N 38°56' W 075°08'0 0.1
2018-Feb-16 07:55N 38°56' W 075°08'0 0.0
2018-Feb-16 07:25N 38°56' W 075°08'0 0.1
2018-Feb-16 06:04N 38°56' W 075°08'0 0.0
2018-Feb-16 05:46N 38°56' W 075°08'0 0.0
2018-Feb-16 05:28N 38°56' W 075°08'0 0.1
2018-Feb-16 04:04N 38°56' W 075°08'0 0.0
2018-Feb-15 22:55N 38°56' W 075°08'0 0.1
2018-Feb-15 21:37N 38°56' W 075°08'0 0.9
2018-Feb-15 21:28N 38°56' W 075°08'0 0.2
2018-Feb-15 20:58N 38°55' W 075°08'0 0.0
2018-Feb-15 20:28N 38°55' W 075°08'0 0.0
2018-Feb-15 19:58N 38°55' W 075°08'0 0.0
2018-Feb-15 19:26N 38°55' W 075°08'1 1.4
2018-Feb-15 19:00N 38°55' W 075°09'2 3.3
2018-Feb-15 18:30N 38°56' W 075°11'0 0.0
2018-Feb-15 17:59N 38°56' W 075°11'0 0.0
2018-Feb-15 17:02N 38°56' W 075°11'0 0.0
2018-Feb-15 16:56N 38°56' W 075°11'0 0.1
2018-Feb-15 13:11N 38°56' W 075°11'0 0.7
2018-Feb-15 13:00N 38°56' W 075°11'4 6.7
2018-Feb-15 12:26N 38°55' W 075°06'4 9.1
2018-Feb-15 11:59N 38°59' W 075°08'4 9.0
2018-Feb-15 11:30N 39°03' W 075°10'5 9.1
2018-Feb-15 11:00N 39°07' W 075°13'5 9.6
2018-Feb-15 10:30N 39°11' W 075°17'510.4
2018-Feb-15 10:00N 39°16' W 075°20'612.1
2018-Feb-15 09:30N 39°20' W 075°25'713.1
2018-Feb-15 09:00N 39°25' W 075°31'611.6
2018-Feb-15 08:30N 39°31' W 075°33'611.7
2018-Feb-15 08:01N 39°36' W 075°34'5 9.9
2018-Feb-15 07:30N 39°41' W 075°31'510.4
2018-Feb-15 07:00N 39°46' W 075°29'5 9.8
2018-Feb-15 06:30N 39°49' W 075°24'5 9.1
2018-Feb-15 06:00N 39°51' W 075°19'4 9.0
2018-Feb-15 05:30N 39°52' W 075°13'0 0.3
2018-Feb-15 05:01N 39°52' W 075°13'0 0.0
2018-Feb-15 04:29N 39°52' W 075°13'0 0.0
2018-Feb-15 03:59N 39°52' W 075°13'0 0.0
2018-Feb-15 03:29N 39°52' W 075°13'0 0.0
2018-Feb-15 02:59N 39°52' W 075°13'0 0.0
2018-Feb-15 02:29N 39°52' W 075°13'0 0.0
2018-Feb-15 01:59N 39°52' W 075°13'0 0.0
2018-Feb-15 01:29N 39°52' W 075°13'0 0.0
2018-Feb-15 00:59N 39°52' W 075°13'0 0.0
2018-Feb-15 00:29N 39°52' W 075°13'0 0.0
2018-Feb-14 23:56N 39°52' W 075°13'0 0.0
2018-Feb-14 23:29N 39°52' W 075°13'0 0.0
2018-Feb-14 22:59N 39°52' W 075°13'0 0.0
2018-Feb-14 22:29N 39°52' W 075°13'0 0.0
2018-Feb-14 21:59N 39°52' W 075°13'0 0.0
2018-Feb-14 21:29N 39°52' W 075°13'0 0.0
2018-Feb-14 20:59N 39°52' W 075°13'0 0.0
2018-Feb-14 20:29N 39°52' W 075°13'0 0.0
2018-Feb-14 19:59N 39°52' W 075°13'0 0.0
2018-Feb-14 19:29N 39°52' W 075°13'0 0.0
2018-Feb-14 18:59N 39°52' W 075°13'0 0.0
2018-Feb-14 18:29N 39°52' W 075°13'0 0.0
2018-Feb-14 17:59N 39°52' W 075°13'0 0.0
2018-Feb-14 17:29N 39°52' W 075°13'0 0.0
2018-Feb-14 16:59N 39°52' W 075°13'0 0.0
2018-Feb-14 16:29N 39°52' W 075°13'0 0.0
2018-Feb-14 15:59N 39°52' W 075°13'0 0.0
2018-Feb-14 15:29N 39°52' W 075°13'0 0.0
2018-Feb-14 14:59N 39°52' W 075°13'0 0.0
2018-Feb-14 14:29N 39°52' W 075°13'0 0.0
2018-Feb-14 13:59N 39°52' W 075°13'0 0.0
2018-Feb-14 13:29N 39°52' W 075°13'0 0.0
2018-Feb-14 12:59N 39°52' W 075°13'0 0.0
2018-Feb-14 12:29N 39°52' W 075°13'0 0.0
2018-Feb-14 11:59N 39°52' W 075°13'0 0.0
2018-Feb-14 11:29N 39°52' W 075°13'0 0.0
2018-Feb-14 10:59N 39°52' W 075°13'0 0.0
2018-Feb-14 10:29N 39°52' W 075°13'0 0.0
2018-Feb-14 09:59N 39°52' W 075°13'0 0.0
2018-Feb-14 09:29N 39°52' W 075°13'0 0.0
2018-Feb-14 08:59N 39°52' W 075°13'0 0.0
2018-Feb-14 08:29N 39°52' W 075°13'0 0.0
2018-Feb-14 07:59N 39°52' W 075°13'0 0.0
2018-Feb-14 07:26N 39°52' W 075°13'0 0.0
2018-Feb-14 06:59N 39°52' W 075°13'0 0.0
2018-Feb-14 06:29N 39°52' W 075°13'0 0.0
2018-Feb-14 05:59N 39°52' W 075°13'0 0.0
2018-Feb-14 05:29N 39°52' W 075°13'0 0.0
2018-Feb-14 04:59N 39°52' W 075°13'0 0.0
2018-Feb-14 04:29N 39°52' W 075°13'0 0.0
2018-Feb-14 03:59N 39°52' W 075°13'0 0.0
2018-Feb-14 03:29N 39°52' W 075°13'0 0.0
2018-Feb-14 02:59N 39°52' W 075°13'0 0.0
2018-Feb-14 02:28N 39°52' W 075°13'0 0.0
2018-Feb-14 01:59N 39°52' W 075°13'0 0.0
2018-Feb-14 01:29N 39°52' W 075°13'0 0.0
2018-Feb-14 01:00N 39°52' W 075°13'0 0.0
2018-Feb-14 00:30N 39°52' W 075°13'1 2.8
2018-Feb-14 00:00N 39°51' W 075°15'4 8.7
2018-Feb-13 23:31N 39°51' W 075°20'4 8.6
2018-Feb-13 23:00N 39°48' W 075°25'4 8.7
2018-Feb-13 22:30N 39°45' W 075°29'4 9.0
2018-Feb-13 22:01N 39°41' W 075°31'4 8.8
2018-Feb-13 21:31N 39°38' W 075°35'4 8.5
2018-Feb-13 21:01N 39°34' W 075°33'4 8.5
2018-Feb-13 20:30N 39°29' W 075°34'4 8.3
2018-Feb-13 20:00N 39°26' W 075°32'4 8.9
2018-Feb-13 19:31N 39°22' W 075°28'5 9.0
2018-Feb-13 19:00N 39°19' W 075°24'4 9.0
2018-Feb-13 18:30N 39°16' W 075°20'5 9.3
2018-Feb-13 18:00N 39°12' W 075°17'5 9.5
2018-Feb-13 17:31N 39°08' W 075°13'5 9.4
2018-Feb-13 17:01N 39°04' W 075°10'5 9.3
2018-Feb-13 16:30N 38°59' W 075°08'5 9.0
2018-Feb-13 15:57N 38°55' W 075°06'4 8.8
2018-Feb-13 15:30N 38°57' W 075°10'0 0.8
2018-Feb-13 15:00N 38°57' W 075°11'0 0.0
2018-Feb-13 08:01N 38°57' W 075°11'0 0.6
2018-Feb-13 08:00N 38°57' W 075°11'0 0.9
2018-Feb-13 07:30N 38°57' W 075°10'0 0.7
2018-Feb-13 07:01N 38°56' W 075°10'0 0.5
2018-Feb-13 06:30N 38°56' W 075°10'  
Track history (hours):
 
Tides and Currents Weather Stations Pressure Air Temp Water Temp Dewpoint Dewpoint Depression Visibility Wind Speed Wind Dir Waves Ship Positions

Osg Vision

Owner: OSG Ship Management Inc., Tampa, FL. More information available from US FCC via Universal Licensing System and Coast Guard Vessel Documentation Center.

Last reported at 2018-Feb-23 02:58 UTC. Time now 2018-Feb-23 03:13 UTC.
Position N 39°01' W 075°14'.

Length 213 m; draft 7.9 m.

Type: Tanker. MMSI: 369235000.

Date/timePositionNaut miles runAvg speedWind from/ knotsBaromVisibWave heightAir tempDewpointWater temp
2018-Feb-23 02:58N 39°01' W 075°14'0 0.1
2018-Feb-23 02:28N 39°01' W 075°14'0 0.0
2018-Feb-23 01:58N 39°01' W 075°14'0 0.0
2018-Feb-23 01:28N 39°01' W 075°14'0 0.1
2018-Feb-23 00:58N 39°01' W 075°14'0 0.0
2018-Feb-23 00:28N 39°01' W 075°14'0 0.2
2018-Feb-22 23:58N 39°01' W 075°14'0 0.0
2018-Feb-22 23:28N 39°01' W 075°14'0 0.0
2018-Feb-22 22:58N 39°01' W 075°14'0 0.0
2018-Feb-22 22:22N 39°01' W 075°14'0 0.1
2018-Feb-22 21:58N 39°01' W 075°14'0 0.1
2018-Feb-22 21:28N 39°01' W 075°14'0 0.1
2018-Feb-22 20:55N 39°01' W 075°14'0 0.1
2018-Feb-22 20:28N 39°01' W 075°14'0 0.0
2018-Feb-22 19:58N 39°01' W 075°14'0 0.1
2018-Feb-22 19:28N 39°01' W 075°14'0 0.0
2018-Feb-22 18:55N 39°01' W 075°14'0 0.2
2018-Feb-22 18:28N 39°01' W 075°14'1 2.4
2018-Feb-22 18:00N 38°60' W 075°14'610.7
2018-Feb-22 17:29N 38°55' W 075°09'2 2.9
2018-Feb-22 16:53N 38°55' W 075°07'2 5.6
2018-Feb-22 16:30N 38°57' W 075°07'4 8.4
2018-Feb-22 16:00N 39°01' W 075°09'4 8.8
2018-Feb-22 15:30N 39°05' W 075°11'5 9.3
2018-Feb-22 15:00N 39°09' W 075°15'510.2
2018-Feb-22 14:30N 39°13' W 075°18'611.6
2018-Feb-22 14:00N 39°18' W 075°23'612.7
2018-Feb-22 13:30N 39°23' W 075°28'612.6
2018-Feb-22 13:00N 39°27' W 075°34'612.0
2018-Feb-22 12:30N 39°33' W 075°33'3 5.5
2018-Feb-22 12:00N 39°35' W 075°35'0 0.0
2018-Feb-22 11:30N 39°35' W 075°35'0 0.0
2018-Feb-22 10:58N 39°35' W 075°35'0 0.0
2018-Feb-22 10:28N 39°35' W 075°35'0 0.0
2018-Feb-22 09:58N 39°35' W 075°35'0 0.0
2018-Feb-22 09:28N 39°35' W 075°35'0 0.0
2018-Feb-22 08:58N 39°35' W 075°35'0 0.0
2018-Feb-22 08:28N 39°35' W 075°35'0 0.0
2018-Feb-22 07:58N 39°35' W 075°35'0 0.0
2018-Feb-22 07:28N 39°35' W 075°35'0 0.0
2018-Feb-22 06:58N 39°35' W 075°35'0 0.0
2018-Feb-22 06:28N 39°35' W 075°35'0 0.0
2018-Feb-22 05:58N 39°35' W 075°35'0 0.0
2018-Feb-22 05:28N 39°35' W 075°35'0 0.0
2018-Feb-22 04:58N 39°35' W 075°35'0 0.0
2018-Feb-22 04:28N 39°35' W 075°35'0 0.0
2018-Feb-22 03:58N 39°35' W 075°35'0 0.0
2018-Feb-22 03:28N 39°35' W 075°35'0 0.0
2018-Feb-22 02:58N 39°35' W 075°35'0 0.0
2018-Feb-22 02:28N 39°35' W 075°35'0 0.0
2018-Feb-22 01:55N 39°35' W 075°35'0 0.0
2018-Feb-22 01:28N 39°35' W 075°35'0 0.0
2018-Feb-22 00:58N 39°35' W 075°35'0 0.0
2018-Feb-22 00:28N 39°35' W 075°35'0 0.0
2018-Feb-21 23:55N 39°35' W 075°35'0 0.0
2018-Feb-21 23:28N 39°35' W 075°35'0 0.0
2018-Feb-21 22:58N 39°35' W 075°35'0 0.0
2018-Feb-21 22:28N 39°35' W 075°35'0 0.0
2018-Feb-21 22:00N 39°35' W 075°35'1 2.1
2018-Feb-21 21:30N 39°34' W 075°34'3 6.9
2018-Feb-21 21:00N 39°31' W 075°33'5 9.5
2018-Feb-21 20:30N 39°26' W 075°32'510.5
2018-Feb-21 20:00N 39°22' W 075°28'510.6
2018-Feb-21 19:30N 39°19' W 075°23'610.9
2018-Feb-21 18:59N 39°14' W 075°19'510.7
2018-Feb-21 18:30N 39°10' W 075°15'510.7
2018-Feb-21 18:00N 39°05' W 075°11'510.2
2018-Feb-21 17:31N 39°01' W 075°09'510.2
2018-Feb-21 17:00N 38°56' W 075°06'2 0.7
2018-Feb-21 14:38N 38°55' W 075°08'0 0.0
2018-Feb-21 14:29N 38°55' W 075°08'0 0.1
2018-Feb-21 13:11N 38°55' W 075°08'0 0.3
2018-Feb-21 12:53N 38°55' W 075°08'0 0.1
2018-Feb-21 12:29N 38°55' W 075°08'0 0.0
2018-Feb-21 11:59N 38°55' W 075°08'0 0.0
2018-Feb-21 11:29N 38°55' W 075°08'0 0.0
2018-Feb-21 10:53N 38°55' W 075°08'0 1.1
2018-Feb-21 10:29N 38°54' W 075°08'5 9.9
2018-Feb-21 09:57N 38°59' W 075°12'1 0.1
2018-Feb-21 01:57N 38°59' W 075°13'0 0.1
2018-Feb-21 01:30N 38°59' W 075°13'3 5.4
2018-Feb-21 00:55N 38°57' W 075°10'4 7.4
2018-Feb-21 00:26N 38°56' W 075°06'510.5
2018-Feb-21 00:01N 38°60' W 075°08'611.4
2018-Feb-20 23:30N 39°05' W 075°11'612.3
2018-Feb-20 23:00N 39°10' W 075°16'612.7
2018-Feb-20 22:31N 39°16' W 075°20'612.8
2018-Feb-20 22:00N 39°20' W 075°26'612.1
2018-Feb-20 21:30N 39°25' W 075°31'510.6
2018-Feb-20 21:00N 39°30' W 075°34'510.1
2018-Feb-20 20:30N 39°35' W 075°33'4 8.6
2018-Feb-20 20:01N 39°39' W 075°33'4 8.9
2018-Feb-20 19:30N 39°43' W 075°30'4 8.7
2018-Feb-20 19:01N 39°47' W 075°28'4 8.4
2018-Feb-20 18:31N 39°49' W 075°23'4 7.6
2018-Feb-20 18:00N 39°51' W 075°19'4 8.8
2018-Feb-20 17:31N 39°52' W 075°13'0 0.8
2018-Feb-20 17:00N 39°52' W 075°13'0 0.0
2018-Feb-20 16:28N 39°52' W 075°13'0 0.0
2018-Feb-20 15:58N 39°52' W 075°13'0 0.0
2018-Feb-20 15:28N 39°52' W 075°13'0 0.0
2018-Feb-20 14:58N 39°52' W 075°13'0 0.0
2018-Feb-20 14:28N 39°52' W 075°13'0 0.0
2018-Feb-20 13:58N 39°52' W 075°13'0 0.0
2018-Feb-20 13:28N 39°52' W 075°13'0 0.0
2018-Feb-20 12:58N 39°52' W 075°13'0 0.0
2018-Feb-20 12:28N 39°52' W 075°13'0 0.0
2018-Feb-20 11:58N 39°52' W 075°13'0 0.0
2018-Feb-20 11:28N 39°52' W 075°13'0 0.0
2018-Feb-20 10:58N 39°52' W 075°13'0 0.0
2018-Feb-20 10:28N 39°52' W 075°13'0 0.0
2018-Feb-20 09:58N 39°52' W 075°13'0 0.0
2018-Feb-20 09:28N 39°52' W 075°13'0 0.0
2018-Feb-20 08:58N 39°52' W 075°13'0 0.0
2018-Feb-20 08:28N 39°52' W 075°13'0 0.0
2018-Feb-20 07:58N 39°52' W 075°13'0 0.0
2018-Feb-20 07:28N 39°52' W 075°13'0 0.0
2018-Feb-20 06:58N 39°52' W 075°13'0 0.0
2018-Feb-20 06:28N 39°52' W 075°13'0 0.0
2018-Feb-20 05:58N 39°52' W 075°13'0 0.0
2018-Feb-20 05:28N 39°52' W 075°13'0 0.0
2018-Feb-20 04:58N 39°52' W 075°13'0 0.0
2018-Feb-20 04:28N 39°52' W 075°13'0 0.0
2018-Feb-20 03:58N 39°52' W 075°13'0 0.0
2018-Feb-20 03:28N 39°52' W 075°13'0 0.0
2018-Feb-20 02:58N 39°52' W 075°13'0 0.0
2018-Feb-20 02:28N 39°52' W 075°13'0 0.0
2018-Feb-20 01:58N 39°52' W 075°13'0 0.2
2018-Feb-20 01:28N 39°52' W 075°13'0 0.1
2018-Feb-20 00:58N 39°52' W 075°13'0 0.0
2018-Feb-20 00:28N 39°52' W 075°13'0 0.0
2018-Feb-19 23:58N 39°52' W 075°13'0 0.0
2018-Feb-19 23:28N 39°52' W 075°13'0 0.0
2018-Feb-19 22:58N 39°52' W 075°13'0 0.0
2018-Feb-19 22:28N 39°52' W 075°13'0 0.0
2018-Feb-19 21:58N 39°52' W 075°13'0 0.0
2018-Feb-19 21:25N 39°52' W 075°13'0 0.0
2018-Feb-19 20:58N 39°52' W 075°13'0 0.0
2018-Feb-19 20:28N 39°52' W 075°13'0 0.0
2018-Feb-19 19:58N 39°52' W 075°13'0 0.0
2018-Feb-19 19:28N 39°52' W 075°13'0 0.0
2018-Feb-19 18:58N 39°52' W 075°13'0 0.0
2018-Feb-19 18:28N 39°52' W 075°13'0 0.0
2018-Feb-19 17:58N 39°52' W 075°13'0 0.0
2018-Feb-19 17:28N 39°52' W 075°13'0 0.0
2018-Feb-19 16:58N 39°52' W 075°13'0 0.0
2018-Feb-19 16:28N 39°52' W 075°13'0 0.0
2018-Feb-19 15:58N 39°52' W 075°13'0 0.0
2018-Feb-19 15:28N 39°52' W 075°13'0 0.0
2018-Feb-19 14:58N 39°52' W 075°13'0 0.0
2018-Feb-19 14:28N 39°52' W 075°13'0 0.0
2018-Feb-19 13:58N 39°52' W 075°13'0 0.0
2018-Feb-19 13:28N 39°52' W 075°13'0 0.0
2018-Feb-19 12:58N 39°52' W 075°13'0 0.0
2018-Feb-19 12:28N 39°52' W 075°13'0 0.0
2018-Feb-19 11:58N 39°52' W 075°13'0 0.0
2018-Feb-19 11:28N 39°52' W 075°13'0 0.0
2018-Feb-19 10:58N 39°52' W 075°13'0 0.0
2018-Feb-19 10:28N 39°52' W 075°13'0 0.0
2018-Feb-19 09:58N 39°52' W 075°13'0 0.0
2018-Feb-19 09:28N 39°52' W 075°13'0 0.0
2018-Feb-19 08:58N 39°52' W 075°13'0 0.0
2018-Feb-19 08:25N 39°52' W 075°13'0 0.0
2018-Feb-19 07:58N 39°52' W 075°13'0 0.0
2018-Feb-19 07:28N 39°52' W 075°13'0 0.0
2018-Feb-19 06:58N 39°52' W 075°13'0 0.0
2018-Feb-19 06:28N 39°52' W 075°13'0 0.0
2018-Feb-19 05:58N 39°52' W 075°13'0 0.0
2018-Feb-19 05:28N 39°52' W 075°13'0 0.0
2018-Feb-19 04:58N 39°52' W 075°13'0 0.0
2018-Feb-19 04:28N 39°52' W 075°13'0 0.0
2018-Feb-19 03:58N 39°52' W 075°13'0 0.0
2018-Feb-19 03:28N 39°52' W 075°13'0 0.0
2018-Feb-19 02:58N 39°52' W 075°13'0 0.0
2018-Feb-19 02:28N 39°52' W 075°13'0 0.0
2018-Feb-19 01:55N 39°52' W 075°13'0 0.0
2018-Feb-19 01:28N 39°52' W 075°13'0 0.0
2018-Feb-19 00:58N 39°52' W 075°13'0 0.0
2018-Feb-19 00:28N 39°52' W 075°13'0 0.0
2018-Feb-18 23:58N 39°52' W 075°13'0 0.0
2018-Feb-18 23:28N 39°52' W 075°13'0 0.0
2018-Feb-18 22:58N 39°52' W 075°13'0 0.0
2018-Feb-18 22:28N 39°52' W 075°13'0 0.0
2018-Feb-18 21:58N 39°52' W 075°13'0 0.0
2018-Feb-18 21:25N 39°52' W 075°13'0 0.0
2018-Feb-18 20:58N 39°52' W 075°13'0 0.0
2018-Feb-18 20:28N 39°52' W 075°13'0 0.0
2018-Feb-18 20:00N 39°52' W 075°13'0 0.6
2018-Feb-18 19:30N 39°52' W 075°13'3 5.7
2018-Feb-18 19:00N 39°51' W 075°17'510.2
2018-Feb-18 18:30N 39°49' W 075°23'510.1
2018-Feb-18 18:00N 39°46' W 075°28'611.8
2018-Feb-18 17:30N 39°41' W 075°31'510.6
2018-Feb-18 17:00N 39°36' W 075°34'510.2
2018-Feb-18 16:30N 39°31' W 075°33'510.8
2018-Feb-18 16:00N 39°26' W 075°32'611.9
2018-Feb-18 15:30N 39°21' W 075°26'611.8
2018-Feb-18 15:00N 39°17' W 075°21'611.5
2018-Feb-18 14:30N 39°12' W 075°17'611.5
2018-Feb-18 14:01N 39°07' W 075°13'611.3
2018-Feb-18 13:30N 39°02' W 075°10'611.5
2018-Feb-18 13:00N 38°57' W 075°07'3 6.2
2018-Feb-18 12:30N 38°54' W 075°08'1 1.5
2018-Feb-18 11:58N 38°54' W 075°07'1 1.5
2018-Feb-18 11:30N 38°55' W 075°08'0 0.2
2018-Feb-18 10:59N 38°55' W 075°08'0 0.0
2018-Feb-18 10:29N 38°55' W 075°08'0 0.0
2018-Feb-18 09:35N 38°55' W 075°08'0 0.0
2018-Feb-18 09:26N 38°55' W 075°08'0 0.0
2018-Feb-18 08:47N 38°55' W 075°08'0 0.0
2018-Feb-18 08:23N 38°55' W 075°08'0 0.0
2018-Feb-18 07:59N 38°55' W 075°08'0 0.0
2018-Feb-18 07:26N 38°55' W 075°08'0 0.0
2018-Feb-18 06:56N 38°55' W 075°08'0 0.0
2018-Feb-18 06:23N 38°55' W 075°08'0 0.1
2018-Feb-18 05:56N 38°55' W 075°08'0 0.1
2018-Feb-18 05:29N 38°55' W 075°08'0 0.1
2018-Feb-18 03:35N 38°55' W 075°08'0 0.1
2018-Feb-18 03:29N 38°55' W 075°08'0 0.1
2018-Feb-17 22:53N 38°55' W 075°08'0 0.2
2018-Feb-17 22:14N 38°55' W 075°08'3 4.7
2018-Feb-17 21:32N 38°57' W 075°11'0 3.8
2018-Feb-17 21:30N 38°57' W 075°11'0 0.4
2018-Feb-17 20:59N 38°57' W 075°11'0 0.1
2018-Feb-17 14:45N 38°57' W 075°11'0 0.2
2018-Feb-17 14:29N 38°57' W 075°11'0 0.6
2018-Feb-17 13:43N 38°57' W 075°11'1 3.2
2018-Feb-17 13:27N 38°58' W 075°12'4 0.2
2018-Feb-16 18:52N 38°56' W 075°08'0 0.0
2018-Feb-16 18:28N 38°56' W 075°08'0 0.0
2018-Feb-16 17:58N 38°56' W 075°08'0 0.1
2018-Feb-16 17:25N 38°56' W 075°08'0 0.0
2018-Feb-16 16:49N 38°56' W 075°08'0 0.1
2018-Feb-16 16:10N 38°56' W 075°08'0 0.1
2018-Feb-16 15:40N 38°56' W 075°08'0 0.1
2018-Feb-16 14:40N 38°56' W 075°08'0 0.1
2018-Feb-16 14:19N 38°56' W 075°08'0 0.1
2018-Feb-16 13:58N 38°56' W 075°08'0 0.1
2018-Feb-16 13:25N 38°56' W 075°08'0 0.0
2018-Feb-16 12:58N 38°56' W 075°08'0 0.0
2018-Feb-16 12:28N 38°56' W 075°08'0 0.0
2018-Feb-16 11:58N 38°56' W 075°08'0 0.1
2018-Feb-16 11:28N 38°56' W 075°08'0 0.0
2018-Feb-16 10:58N 38°56' W 075°08'0 0.0
2018-Feb-16 10:28N 38°56' W 075°08'0 0.1
2018-Feb-16 09:25N 38°56' W 075°08'0 0.1
2018-Feb-16 08:04N 38°56' W 075°08'0 0.1
2018-Feb-16 07:55N 38°56' W 075°08'0 0.0
2018-Feb-16 07:25N 38°56' W 075°08'0 0.1
2018-Feb-16 06:04N 38°56' W 075°08'0 0.0
2018-Feb-16 05:46N 38°56' W 075°08'0 0.0
2018-Feb-16 05:28N 38°56' W 075°08'0 0.1
2018-Feb-16 04:04N 38°56' W 075°08'0 0.0
2018-Feb-15 22:55N 38°56' W 075°08'0 0.1
2018-Feb-15 21:37N 38°56' W 075°08'0 0.9
2018-Feb-15 21:28N 38°56' W 075°08'0 0.2
2018-Feb-15 20:58N 38°55' W 075°08'0 0.0
2018-Feb-15 20:28N 38°55' W 075°08'0 0.0
2018-Feb-15 19:58N 38°55' W 075°08'0 0.0
2018-Feb-15 19:26N 38°55' W 075°08'1 1.4
2018-Feb-15 19:00N 38°55' W 075°09'2 3.3
2018-Feb-15 18:30N 38°56' W 075°11'0 0.0
2018-Feb-15 17:59N 38°56' W 075°11'0 0.0
2018-Feb-15 17:02N 38°56' W 075°11'0 0.0
2018-Feb-15 16:56N 38°56' W 075°11'0 0.1
2018-Feb-15 13:11N 38°56' W 075°11'0 0.7
2018-Feb-15 13:00N 38°56' W 075°11'4 6.7
2018-Feb-15 12:26N 38°55' W 075°06'4 9.1
2018-Feb-15 11:59N 38°59' W 075°08'4 9.0
2018-Feb-15 11:30N 39°03' W 075°10'5 9.1
2018-Feb-15 11:00N 39°07' W 075°13'5 9.6
2018-Feb-15 10:30N 39°11' W 075°17'510.4
2018-Feb-15 10:00N 39°16' W 075°20'612.1
2018-Feb-15 09:30N 39°20' W 075°25'713.1
2018-Feb-15 09:00N 39°25' W 075°31'611.6
2018-Feb-15 08:30N 39°31' W 075°33'611.7
2018-Feb-15 08:01N 39°36' W 075°34'5 9.9
2018-Feb-15 07:30N 39°41' W 075°31'510.4
2018-Feb-15 07:00N 39°46' W 075°29'5 9.8
2018-Feb-15 06:30N 39°49' W 075°24'5 9.1
2018-Feb-15 06:00N 39°51' W 075°19'4 9.0
2018-Feb-15 05:30N 39°52' W 075°13'0 0.3
2018-Feb-15 05:01N 39°52' W 075°13'0 0.0
2018-Feb-15 04:29N 39°52' W 075°13'0 0.0
2018-Feb-15 03:59N 39°52' W 075°13'0 0.0
2018-Feb-15 03:29N 39°52' W 075°13'0 0.0
2018-Feb-15 02:59N 39°52' W 075°13'0 0.0
2018-Feb-15 02:29N 39°52' W 075°13'0 0.0
2018-Feb-15 01:59N 39°52' W 075°13'0 0.0
2018-Feb-15 01:29N 39°52' W 075°13'0 0.0
2018-Feb-15 00:59N 39°52' W 075°13'0 0.0
2018-Feb-15 00:29N 39°52' W 075°13'0 0.0
2018-Feb-14 23:56N 39°52' W 075°13'0 0.0
2018-Feb-14 23:29N 39°52' W 075°13'0 0.0
2018-Feb-14 22:59N 39°52' W 075°13'0 0.0
2018-Feb-14 22:29N 39°52' W 075°13'0 0.0
2018-Feb-14 21:59N 39°52' W 075°13'0 0.0
2018-Feb-14 21:29N 39°52' W 075°13'0 0.0
2018-Feb-14 20:59N 39°52' W 075°13'0 0.0
2018-Feb-14 20:29N 39°52' W 075°13'0 0.0
2018-Feb-14 19:59N 39°52' W 075°13'0 0.0
2018-Feb-14 19:29N 39°52' W 075°13'0 0.0
2018-Feb-14 18:59N 39°52' W 075°13'0 0.0
2018-Feb-14 18:29N 39°52' W 075°13'0 0.0
2018-Feb-14 17:59N 39°52' W 075°13'0 0.0
2018-Feb-14 17:29N 39°52' W 075°13'0 0.0
2018-Feb-14 16:59N 39°52' W 075°13'0 0.0
2018-Feb-14 16:29N 39°52' W 075°13'0 0.0
2018-Feb-14 15:59N 39°52' W 075°13'0 0.0
2018-Feb-14 15:29N 39°52' W 075°13'0 0.0
2018-Feb-14 14:59N 39°52' W 075°13'0 0.0
2018-Feb-14 14:29N 39°52' W 075°13'0 0.0
2018-Feb-14 13:59N 39°52' W 075°13'0 0.0
2018-Feb-14 13:29N 39°52' W 075°13'0 0.0
2018-Feb-14 12:59N 39°52' W 075°13'0 0.0
2018-Feb-14 12:29N 39°52' W 075°13'0 0.0
2018-Feb-14 11:59N 39°52' W 075°13'0 0.0
2018-Feb-14 11:29N 39°52' W 075°13'0 0.0
2018-Feb-14 10:59N 39°52' W 075°13'0 0.0
2018-Feb-14 10:29N 39°52' W 075°13'0 0.0
2018-Feb-14 09:59N 39°52' W 075°13'0 0.0
2018-Feb-14 09:29N 39°52' W 075°13'0 0.0
2018-Feb-14 08:59N 39°52' W 075°13'0 0.0
2018-Feb-14 08:29N 39°52' W 075°13'0 0.0
2018-Feb-14 07:59N 39°52' W 075°13'0 0.0
2018-Feb-14 07:26N 39°52' W 075°13'0 0.0
2018-Feb-14 06:59N 39°52' W 075°13'0 0.0
2018-Feb-14 06:29N 39°52' W 075°13'0 0.0
2018-Feb-14 05:59N 39°52' W 075°13'0 0.0
2018-Feb-14 05:29N 39°52' W 075°13'0 0.0
2018-Feb-14 04:59N 39°52' W 075°13'0 0.0
2018-Feb-14 04:29N 39°52' W 075°13'0 0.0
2018-Feb-14 03:59N 39°52' W 075°13'0 0.0
2018-Feb-14 03:29N 39°52' W 075°13'0 0.0
2018-Feb-14 02:59N 39°52' W 075°13'0 0.0
2018-Feb-14 02:28N 39°52' W 075°13'0 0.0
2018-Feb-14 01:59N 39°52' W 075°13'0 0.0
2018-Feb-14 01:29N 39°52' W 075°13'0 0.0
2018-Feb-14 01:00N 39°52' W 075°13'0 0.0
2018-Feb-14 00:30N 39°52' W 075°13'1 2.8
2018-Feb-14 00:00N 39°51' W 075°15'4 8.7
2018-Feb-13 23:31N 39°51' W 075°20'4 8.6
2018-Feb-13 23:00N 39°48' W 075°25'4 8.7
2018-Feb-13 22:30N 39°45' W 075°29'4 9.0
2018-Feb-13 22:01N 39°41' W 075°31'4 8.8
2018-Feb-13 21:31N 39°38' W 075°35'4 8.5
2018-Feb-13 21:01N 39°34' W 075°33'4 8.5
2018-Feb-13 20:30N 39°29' W 075°34'4 8.3
2018-Feb-13 20:00N 39°26' W 075°32'4 8.9
2018-Feb-13 19:31N 39°22' W 075°28'5 9.0
2018-Feb-13 19:00N 39°19' W 075°24'4 9.0
2018-Feb-13 18:30N 39°16' W 075°20'5 9.3
2018-Feb-13 18:00N 39°12' W 075°17'5 9.5
2018-Feb-13 17:31N 39°08' W 075°13'5 9.4
2018-Feb-13 17:01N 39°04' W 075°10'5 9.3
2018-Feb-13 16:30N 38°59' W 075°08'5 9.0
2018-Feb-13 15:57N 38°55' W 075°06'4 8.8
2018-Feb-13 15:30N 38°57' W 075°10'0 0.8
2018-Feb-13 15:00N 38°57' W 075°11'0 0.0
2018-Feb-13 08:01N 38°57' W 075°11'0 0.6
2018-Feb-13 08:00N 38°57' W 075°11'0 0.9
2018-Feb-13 07:30N 38°57' W 075°10'0 0.7
2018-Feb-13 07:01N 38°56' W 075°10'0 0.5
2018-Feb-13 06:30N 38°56' W 075°10'  

Dump ship's entire track history